Bennington, Nebraska
Current Conditions -  °F | °C
As of 7:55 AM on Wednesday 26 Nov 2014 (Local Time) from KBTA Reporting Station
Overcast Overcast  
Wind Chill: 27°   Ceiling: 1200
Heat Index: 37°   Visibility: 10mi
Dew Point: 32°   Wind: 21mph
Humidity: 81%   Direction: 310°NW
Pressure: 29.9"   Gusts: 29mph
Location:  41.36°N, 96.16°W
Report Text: KBTA 261355Z AUTO 31018G25KT 10SM OVC012 03/00 A2990 RMK AO2 T00300000
Loading
Personal Weather Stations






























Interactive Weather Map New forecast layout! Learn more

10-Day Weather Forecast

Advertisements
Track Severe Weather on mobile